Lockbourne, Ohio
Current Conditions -  °F | °C
As of 7:35 AM on Monday 24 Nov 2014 (Local Time) from KLCK Reporting Station
Broken Clouds Broken Clouds  
Wind Chill: 59°   Ceiling: 4000
Heat Index: 59°   Visibility: 10mi
Dew Point: 54°   Wind: 20mph
Humidity: 84%   Direction: 190°S
Pressure: 29.35"   Gusts: 26mph
Location:  39.81°N, 82.97°W
Report Text: KLCK 241235Z AUTO 19017G23KT 10SM SCT032 BKN040 BKN049 15/12 A2935 RMK AO2 T01480121
Loading
Personal Weather Stations






























Interactive Weather Map New forecast layout! Learn more

10-Day Weather Forecast

Advertisements
Track Severe Weather on mobile